sensor_id;sensor_type;location;lat;lon;timestamp;P1;durP1;ratioP1;P2;durP2;ratioP2
20533;SDS011;12929;56.822;26.056;2022-07-10T00:01:06;7.53;;;1.58;;
20533;SDS011;12929;56.822;26.056;2022-07-10T00:03:33;5.07;;;1.40;;
20533;SDS011;12929;56.822;26.056;2022-07-10T00:06:01;6.35;;;1.42;;
20533;SDS011;12929;56.822;26.056;2022-07-10T00:08:29;4.57;;;1.58;;
20533;SDS011;12929;56.822;26.056;2022-07-10T00:10:57;4.70;;;1.60;;
20533;SDS011;12929;56.822;26.056;2022-07-10T00:13:25;5.75;;;1.45;;
20533;SDS011;12929;56.822;26.056;2022-07-10T00:15:53;7.07;;;1.80;;
20533;SDS011;12929;56.822;26.056;2022-07-10T00:18:20;5.50;;;1.98;;
20533;SDS011;12929;56.822;26.056;2022-07-10T00:20:48;3.60;;;1.20;;
20533;SDS011;12929;56.822;26.056;2022-07-10T00:23:16;5.68;;;1.40;;
20533;SDS011;12929;56.822;26.056;2022-07-10T00:25:44;7.07;;;1.60;;
20533;SDS011;12929;56.822;26.056;2022-07-10T00:28:11;4.95;;;1.58;;
20533;SDS011;12929;56.822;26.056;2022-07-10T00:30:40;5.10;;;1.70;;
20533;SDS011;12929;56.822;26.056;2022-07-10T00:33:08;3.80;;;1.55;;
20533;SDS011;12929;56.822;26.056;2022-07-10T00:35:36;6.32;;;2.00;;
20533;SDS011;12929;56.822;26.056;2022-07-10T00:38:04;4.40;;;1.67;;
20533;SDS011;12929;56.822;26.056;2022-07-10T00:40:32;6.18;;;1.83;;
20533;SDS011;12929;56.822;26.056;2022-07-10T00:42:59;4.40;;;1.83;;
20533;SDS011;12929;56.822;26.056;2022-07-10T00:45:27;3.85;;;1.70;;
20533;SDS011;12929;56.822;26.056;2022-07-10T00:47:55;5.87;;;2.07;;
20533;SDS011;12929;56.822;26.056;2022-07-10T00:50:23;6.88;;;2.00;;
20533;SDS011;12929;56.822;26.056;2022-07-10T00:52:51;5.93;;;1.50;;
20533;SDS011;12929;56.822;26.056;2022-07-10T00:55:19;3.33;;;1.83;;
20533;SDS011;12929;56.822;26.056;2022-07-10T00:57:47;5.10;;;1.90;;
20533;SDS011;12929;56.822;26.056;2022-07-10T01:00:16;6.40;;;2.03;;
20533;SDS011;12929;56.822;26.056;2022-07-10T01:02:45;4.47;;;2.08;;
20533;SDS011;12929;56.822;26.056;2022-07-10T01:05:14;5.85;;;1.90;;
20533;SDS011;12929;56.822;26.056;2022-07-10T01:07:41;6.22;;;2.30;;
20533;SDS011;12929;56.822;26.056;2022-07-10T01:10:09;5.25;;;2.28;;
20533;SDS011;12929;56.822;26.056;2022-07-10T01:12:37;5.90;;;1.90;;
20533;SDS011;12929;56.822;26.056;2022-07-10T01:15:06;7.07;;;2.28;;
20533;SDS011;12929;56.822;26.056;2022-07-10T01:17:34;4.65;;;1.83;;
20533;SDS011;12929;56.822;26.056;2022-07-10T01:20:08;8.48;;;1.90;;
20533;SDS011;12929;56.822;26.056;2022-07-10T01:22:37;6.13;;;1.83;;
20533;SDS011;12929;56.822;26.056;2022-07-10T01:25:05;5.88;;;2.13;;
20533;SDS011;12929;56.822;26.056;2022-07-10T01:27:33;3.60;;;2.00;;
20533;SDS011;12929;56.822;26.056;2022-07-10T01:30:01;4.50;;;1.83;;
20533;SDS011;12929;56.822;26.056;2022-07-10T01:32:39;6.60;;;2.37;;
20533;SDS011;12929;56.822;26.056;2022-07-10T01:35:07;6.55;;;1.88;;
20533;SDS011;12929;56.822;26.056;2022-07-10T01:37:35;5.63;;;1.70;;
20533;SDS011;12929;56.822;26.056;2022-07-10T01:40:04;5.00;;;2.00;;
20533;SDS011;12929;56.822;26.056;2022-07-10T01:42:32;5.50;;;1.95;;
20533;SDS011;12929;56.822;26.056;2022-07-10T01:45:01;6.00;;;2.00;;
20533;SDS011;12929;56.822;26.056;2022-07-10T01:47:32;5.20;;;2.00;;
20533;SDS011;12929;56.822;26.056;2022-07-10T01:50:01;3.88;;;1.85;;
20533;SDS011;12929;56.822;26.056;2022-07-10T01:52:29;4.15;;;1.98;;
20533;SDS011;12929;56.822;26.056;2022-07-10T01:54:57;4.22;;;1.90;;
20533;SDS011;12929;56.822;26.056;2022-07-10T01:57:25;8.90;;;2.38;;
20533;SDS011;12929;56.822;26.056;2022-07-10T01:59:53;4.78;;;2.20;;
20533;SDS011;12929;56.822;26.056;2022-07-10T02:02:21;6.47;;;2.15;;
20533;SDS011;12929;56.822;26.056;2022-07-10T02:04:48;6.73;;;2.73;;
20533;SDS011;12929;56.822;26.056;2022-07-10T02:07:17;9.02;;;2.50;;
20533;SDS011;12929;56.822;26.056;2022-07-10T02:09:48;9.43;;;4.00;;
20533;SDS011;12929;56.822;26.056;2022-07-10T02:12:16;12.73;;;4.00;;
20533;SDS011;12929;56.822;26.056;2022-07-10T02:14:43;10.17;;;3.67;;
20533;SDS011;12929;56.822;26.056;2022-07-10T02:17:11;6.07;;;3.65;;
20533;SDS011;12929;56.822;26.056;2022-07-10T02:19:39;6.75;;;4.40;;
20533;SDS011;12929;56.822;26.056;2022-07-10T02:22:07;8.00;;;4.10;;
20533;SDS011;12929;56.822;26.056;2022-07-10T02:24:35;5.72;;;4.05;;
20533;SDS011;12929;56.822;26.056;2022-07-10T02:27:03;7.73;;;4.50;;
20533;SDS011;12929;56.822;26.056;2022-07-10T02:29:31;6.50;;;4.32;;
20533;SDS011;12929;56.822;26.056;2022-07-10T02:31:59;5.75;;;3.97;;
20533;SDS011;12929;56.822;26.056;2022-07-10T02:34:27;8.37;;;4.10;;
20533;SDS011;12929;56.822;26.056;2022-07-10T02:36:54;6.35;;;4.10;;
20533;SDS011;12929;56.822;26.056;2022-07-10T02:39:22;6.00;;;4.83;;
20533;SDS011;12929;56.822;26.056;2022-07-10T02:41:50;7.93;;;4.57;;
20533;SDS011;12929;56.822;26.056;2022-07-10T02:44:18;7.83;;;5.20;;
20533;SDS011;12929;56.822;26.056;2022-07-10T02:46:45;5.13;;;4.15;;
20533;SDS011;12929;56.822;26.056;2022-07-10T02:49:13;5.60;;;4.10;;
20533;SDS011;12929;56.822;26.056;2022-07-10T02:51:41;4.90;;;4.40;;
20533;SDS011;12929;56.822;26.056;2022-07-10T02:54:09;5.60;;;4.15;;
20533;SDS011;12929;56.822;26.056;2022-07-10T02:56:37;7.70;;;4.20;;
20533;SDS011;12929;56.822;26.056;2022-07-10T02:59:05;5.35;;;4.43;;
20533;SDS011;12929;56.822;26.056;2022-07-10T03:01:33;6.43;;;4.40;;
20533;SDS011;12929;56.822;26.056;2022-07-10T03:04:01;13.40;;;3.65;;
20533;SDS011;12929;56.822;26.056;2022-07-10T03:06:29;6.00;;;4.45;;
20533;SDS011;12929;56.822;26.056;2022-07-10T03:08:57;5.90;;;4.05;;
20533;SDS011;12929;56.822;26.056;2022-07-10T03:11:25;5.70;;;4.05;;
20533;SDS011;12929;56.822;26.056;2022-07-10T03:13:53;4.97;;;3.78;;
20533;SDS011;12929;56.822;26.056;2022-07-10T03:16:20;5.40;;;4.07;;
20533;SDS011;12929;56.822;26.056;2022-07-10T03:18:48;5.82;;;4.25;;
20533;SDS011;12929;56.822;26.056;2022-07-10T03:21:16;5.20;;;4.13;;
20533;SDS011;12929;56.822;26.056;2022-07-10T03:23:44;4.93;;;3.92;;
20533;SDS011;12929;56.822;26.056;2022-07-10T03:26:12;5.60;;;4.78;;
20533;SDS011;12929;56.822;26.056;2022-07-10T03:28:39;5.55;;;4.43;;
20533;SDS011;12929;56.822;26.056;2022-07-10T03:31:08;6.93;;;4.70;;
20533;SDS011;12929;56.822;26.056;2022-07-10T03:33:36;5.77;;;4.17;;
20533;SDS011;12929;56.822;26.056;2022-07-10T03:36:04;5.93;;;4.20;;
20533;SDS011;12929;56.822;26.056;2022-07-10T03:38:32;5.13;;;4.45;;
20533;SDS011;12929;56.822;26.056;2022-07-10T03:41:01;5.78;;;4.30;;
20533;SDS011;12929;56.822;26.056;2022-07-10T03:43:29;5.10;;;4.60;;
20533;SDS011;12929;56.822;26.056;2022-07-10T03:45:57;6.43;;;5.13;;
20533;SDS011;12929;56.822;26.056;2022-07-10T03:48:25;5.68;;;4.88;;
20533;SDS011;12929;56.822;26.056;2022-07-10T03:50:53;5.35;;;4.68;;
20533;SDS011;12929;56.822;26.056;2022-07-10T03:53:21;7.47;;;5.22;;
20533;SDS011;12929;56.822;26.056;2022-07-10T03:55:48;5.70;;;5.10;;
20533;SDS011;12929;56.822;26.056;2022-07-10T03:58:16;4.88;;;4.38;;
20533;SDS011;12929;56.822;26.056;2022-07-10T04:00:44;5.00;;;4.50;;
20533;SDS011;12929;56.822;26.056;2022-07-10T04:03:12;9.57;;;4.00;;
20533;SDS011;12929;56.822;26.056;2022-07-10T04:05:40;6.32;;;4.68;;
20533;SDS011;12929;56.822;26.056;2022-07-10T04:08:08;5.70;;;4.50;;
20533;SDS011;12929;56.822;26.056;2022-07-10T04:10:36;5.70;;;4.63;;
20533;SDS011;12929;56.822;26.056;2022-07-10T04:13:06;5.85;;;4.43;;
20533;SDS011;12929;56.822;26.056;2022-07-10T04:15:34;6.30;;;4.90;;
20533;SDS011;12929;56.822;26.056;2022-07-10T04:18:02;6.25;;;5.22;;
20533;SDS011;12929;56.822;26.056;2022-07-10T04:20:30;5.32;;;4.80;;
20533;SDS011;12929;56.822;26.056;2022-07-10T04:22:58;5.75;;;4.75;;
20533;SDS011;12929;56.822;26.056;2022-07-10T04:25:25;4.90;;;4.40;;
20533;SDS011;12929;56.822;26.056;2022-07-10T04:27:53;6.72;;;5.18;;
20533;SDS011;12929;56.822;26.056;2022-07-10T04:30:21;6.30;;;5.20;;
20533;SDS011;12929;56.822;26.056;2022-07-10T04:32:49;5.60;;;5.00;;
20533;SDS011;12929;56.822;26.056;2022-07-10T04:35:16;5.95;;;5.35;;
20533;SDS011;12929;56.822;26.056;2022-07-10T04:37:44;6.93;;;5.23;;
20533;SDS011;12929;56.822;26.056;2022-07-10T04:40:13;8.13;;;4.78;;
20533;SDS011;12929;56.822;26.056;2022-07-10T04:42:41;6.03;;;4.95;;
20533;SDS011;12929;56.822;26.056;2022-07-10T04:45:09;6.13;;;5.00;;
20533;SDS011;12929;56.822;26.056;2022-07-10T04:47:37;6.10;;;4.93;;
20533;SDS011;12929;56.822;26.056;2022-07-10T04:50:05;6.00;;;4.90;;
20533;SDS011;12929;56.822;26.056;2022-07-10T04:52:33;5.60;;;4.65;;
20533;SDS011;12929;56.822;26.056;2022-07-10T04:55:01;5.40;;;4.75;;
20533;SDS011;12929;56.822;26.056;2022-07-10T04:57:29;6.10;;;4.88;;
20533;SDS011;12929;56.822;26.056;2022-07-10T04:59:57;4.60;;;4.10;;
20533;SDS011;12929;56.822;26.056;2022-07-10T05:02:25;4.72;;;4.20;;
20533;SDS011;12929;56.822;26.056;2022-07-10T05:04:53;7.20;;;4.85;;
20533;SDS011;12929;56.822;26.056;2022-07-10T05:07:21;5.10;;;4.40;;
20533;SDS011;12929;56.822;26.056;2022-07-10T05:09:48;5.25;;;4.45;;
20533;SDS011;12929;56.822;26.056;2022-07-10T05:12:16;5.88;;;4.85;;
20533;SDS011;12929;56.822;26.056;2022-07-10T05:14:44;4.93;;;4.28;;
20533;SDS011;12929;56.822;26.056;2022-07-10T05:17:12;6.60;;;4.70;;
20533;SDS011;12929;56.822;26.056;2022-07-10T05:19:40;6.10;;;5.15;;
20533;SDS011;12929;56.822;26.056;2022-07-10T05:22:07;5.68;;;5.07;;
20533;SDS011;12929;56.822;26.056;2022-07-10T05:24:36;5.25;;;4.35;;
20533;SDS011;12929;56.822;26.056;2022-07-10T05:27:04;5.50;;;5.00;;
20533;SDS011;12929;56.822;26.056;2022-07-10T05:29:32;5.68;;;5.15;;
20533;SDS011;12929;56.822;26.056;2022-07-10T05:32:00;6.10;;;4.85;;
20533;SDS011;12929;56.822;26.056;2022-07-10T05:34:28;8.52;;;5.43;;
20533;SDS011;12929;56.822;26.056;2022-07-10T05:36:56;10.33;;;4.43;;
20533;SDS011;12929;56.822;26.056;2022-07-10T05:39:24;6.25;;;5.40;;
20533;SDS011;12929;56.822;26.056;2022-07-10T05:41:53;12.65;;;7.03;;
20533;SDS011;12929;56.822;26.056;2022-07-10T05:44:23;8.82;;;7.43;;
20533;SDS011;12929;56.822;26.056;2022-07-10T05:46:51;10.93;;;9.27;;
20533;SDS011;12929;56.822;26.056;2022-07-10T05:49:19;17.13;;;11.18;;
20533;SDS011;12929;56.822;26.056;2022-07-10T05:51:47;15.20;;;9.50;;
20533;SDS011;12929;56.822;26.056;2022-07-10T05:54:14;12.43;;;9.82;;
20533;SDS011;12929;56.822;26.056;2022-07-10T05:56:42;12.27;;;10.32;;
20533;SDS011;12929;56.822;26.056;2022-07-10T05:59:11;12.13;;;10.35;;
20533;SDS011;12929;56.822;26.056;2022-07-10T06:01:39;12.65;;;11.02;;
20533;SDS011;12929;56.822;26.056;2022-07-10T06:04:07;13.13;;;11.77;;
20533;SDS011;12929;56.822;26.056;2022-07-10T06:06:36;12.70;;;10.60;;
20533;SDS011;12929;56.822;26.056;2022-07-10T06:09:03;10.60;;;9.50;;
20533;SDS011;12929;56.822;26.056;2022-07-10T06:11:31;10.93;;;9.10;;
20533;SDS011;12929;56.822;26.056;2022-07-10T06:13:59;10.67;;;9.20;;
20533;SDS011;12929;56.822;26.056;2022-07-10T06:16:28;11.00;;;9.27;;
20533;SDS011;12929;56.822;26.056;2022-07-10T06:18:56;10.38;;;8.68;;
20533;SDS011;12929;56.822;26.056;2022-07-10T06:21:24;10.50;;;9.40;;
20533;SDS011;12929;56.822;26.056;2022-07-10T06:23:52;9.30;;;7.70;;
20533;SDS011;12929;56.822;26.056;2022-07-10T06:26:19;12.18;;;8.63;;
20533;SDS011;12929;56.822;26.056;2022-07-10T06:28:47;11.68;;;9.07;;
20533;SDS011;12929;56.822;26.056;2022-07-10T06:31:15;9.43;;;7.70;;
20533;SDS011;12929;56.822;26.056;2022-07-10T06:33:43;11.05;;;8.07;;
20533;SDS011;12929;56.822;26.056;2022-07-10T06:36:12;8.35;;;7.45;;
20533;SDS011;12929;56.822;26.056;2022-07-10T06:38:40;10.93;;;7.38;;
20533;SDS011;12929;56.822;26.056;2022-07-10T06:41:09;8.60;;;6.37;;
20533;SDS011;12929;56.822;26.056;2022-07-10T06:43:37;8.23;;;6.40;;
20533;SDS011;12929;56.822;26.056;2022-07-10T06:46:05;9.23;;;6.20;;
20533;SDS011;12929;56.822;26.056;2022-07-10T06:48:33;8.52;;;6.32;;
20533;SDS011;12929;56.822;26.056;2022-07-10T06:51:04;8.15;;;6.15;;
20533;SDS011;12929;56.822;26.056;2022-07-10T06:53:33;9.45;;;6.57;;
20533;SDS011;12929;56.822;26.056;2022-07-10T06:56:01;10.13;;;5.88;;
20533;SDS011;12929;56.822;26.056;2022-07-10T06:58:29;6.70;;;4.40;;
20533;SDS011;12929;56.822;26.056;2022-07-10T07:00:57;7.97;;;4.80;;
20533;SDS011;12929;56.822;26.056;2022-07-10T07:03:25;6.50;;;4.68;;
20533;SDS011;12929;56.822;26.056;2022-07-10T07:05:53;7.07;;;4.77;;
20533;SDS011;12929;56.822;26.056;2022-07-10T07:08:20;9.30;;;5.53;;
20533;SDS011;12929;56.822;26.056;2022-07-10T07:10:48;9.32;;;5.03;;
20533;SDS011;12929;56.822;26.056;2022-07-10T07:13:16;7.40;;;5.00;;
20533;SDS011;12929;56.822;26.056;2022-07-10T07:15:44;7.33;;;4.63;;
20533;SDS011;12929;56.822;26.056;2022-07-10T07:18:19;6.00;;;4.25;;
20533;SDS011;12929;56.822;26.056;2022-07-10T07:20:49;7.93;;;4.53;;
20533;SDS011;12929;56.822;26.056;2022-07-10T07:23:35;8.50;;;4.45;;
20533;SDS011;12929;56.822;26.056;2022-07-10T07:26:03;8.43;;;4.45;;
20533;SDS011;12929;56.822;26.056;2022-07-10T07:28:31;9.48;;;4.43;;
20533;SDS011;12929;56.822;26.056;2022-07-10T07:30:58;8.70;;;4.30;;
20533;SDS011;12929;56.822;26.056;2022-07-10T07:33:27;7.38;;;4.82;;
20533;SDS011;12929;56.822;26.056;2022-07-10T07:35:54;8.00;;;4.00;;
20533;SDS011;12929;56.822;26.056;2022-07-10T07:38:22;6.30;;;4.35;;
20533;SDS011;12929;56.822;26.056;2022-07-10T07:40:50;7.60;;;3.70;;
20533;SDS011;12929;56.822;26.056;2022-07-10T07:43:18;6.43;;;3.42;;
20533;SDS011;12929;56.822;26.056;2022-07-10T07:45:45;7.15;;;3.08;;
20533;SDS011;12929;56.822;26.056;2022-07-10T07:48:14;7.28;;;3.50;;
20533;SDS011;12929;56.822;26.056;2022-07-10T07:50:42;7.28;;;3.50;;
20533;SDS011;12929;56.822;26.056;2022-07-10T07:53:10;6.70;;;3.20;;
20533;SDS011;12929;56.822;26.056;2022-07-10T07:55:38;5.07;;;2.85;;
20533;SDS011;12929;56.822;26.056;2022-07-10T07:58:06;8.45;;;3.53;;
20533;SDS011;12929;56.822;26.056;2022-07-10T08:00:34;6.13;;;3.03;;
20533;SDS011;12929;56.822;26.056;2022-07-10T08:03:02;8.05;;;3.42;;
20533;SDS011;12929;56.822;26.056;2022-07-10T08:05:30;5.97;;;3.10;;
20533;SDS011;12929;56.822;26.056;2022-07-10T08:07:58;5.80;;;3.10;;
20533;SDS011;12929;56.822;26.056;2022-07-10T08:10:31;7.22;;;3.58;;
20533;SDS011;12929;56.822;26.056;2022-07-10T08:13:00;7.83;;;3.60;;
20533;SDS011;12929;56.822;26.056;2022-07-10T08:15:28;5.33;;;3.20;;
20533;SDS011;12929;56.822;26.056;2022-07-10T08:17:57;6.53;;;2.97;;
20533;SDS011;12929;56.822;26.056;2022-07-10T08:20:27;8.00;;;3.40;;
20533;SDS011;12929;56.822;26.056;2022-07-10T08:22:55;8.57;;;3.77;;
20533;SDS011;12929;56.822;26.056;2022-07-10T08:25:26;5.78;;;3.20;;
20533;SDS011;12929;56.822;26.056;2022-07-10T08:28:01;8.07;;;3.40;;
20533;SDS011;12929;56.822;26.056;2022-07-10T08:30:30;9.60;;;3.40;;
20533;SDS011;12929;56.822;26.056;2022-07-10T08:32:58;7.47;;;3.33;;
20533;SDS011;12929;56.822;26.056;2022-07-10T08:35:26;7.20;;;3.00;;
20533;SDS011;12929;56.822;26.056;2022-07-10T08:37:54;9.23;;;3.97;;
20533;SDS011;12929;56.822;26.056;2022-07-10T08:40:22;6.93;;;2.90;;
20533;SDS011;12929;56.822;26.056;2022-07-10T08:42:49;7.93;;;3.43;;
20533;SDS011;12929;56.822;26.056;2022-07-10T08:45:18;7.50;;;3.20;;
20533;SDS011;12929;56.822;26.056;2022-07-10T08:47:45;9.25;;;3.88;;
20533;SDS011;12929;56.822;26.056;2022-07-10T08:50:23;8.13;;;3.57;;
20533;SDS011;12929;56.822;26.056;2022-07-10T08:52:52;9.52;;;3.35;;
20533;SDS011;12929;56.822;26.056;2022-07-10T08:55:43;6.55;;;3.30;;
20533;SDS011;12929;56.822;26.056;2022-07-10T08:58:12;8.02;;;3.33;;
20533;SDS011;12929;56.822;26.056;2022-07-10T09:00:40;5.53;;;2.67;;
20533;SDS011;12929;56.822;26.056;2022-07-10T09:03:08;6.67;;;2.60;;
20533;SDS011;12929;56.822;26.056;2022-07-10T09:05:36;6.95;;;3.13;;
20533;SDS011;12929;56.822;26.056;2022-07-10T09:08:20;7.93;;;2.58;;
20533;SDS011;12929;56.822;26.056;2022-07-10T09:13:56;5.67;;;2.60;;
20533;SDS011;12929;56.822;26.056;2022-07-10T09:16:32;6.88;;;2.53;;
20533;SDS011;12929;56.822;26.056;2022-07-10T09:21:53;5.80;;;2.78;;
20533;SDS011;12929;56.822;26.056;2022-07-10T09:24:22;6.95;;;2.92;;
20533;SDS011;12929;56.822;26.056;2022-07-10T09:29:27;6.28;;;2.42;;
20533;SDS011;12929;56.822;26.056;2022-07-10T09:31:57;6.30;;;2.50;;
20533;SDS011;12929;56.822;26.056;2022-07-10T09:34:36;4.28;;;2.20;;
20533;SDS011;12929;56.822;26.056;2022-07-10T09:37:23;6.47;;;2.38;;
20533;SDS011;12929;56.822;26.056;2022-07-10T09:39:59;5.93;;;2.30;;
20533;SDS011;12929;56.822;26.056;2022-07-10T09:47:42;4.10;;;2.00;;
20533;SDS011;12929;56.822;26.056;2022-07-10T09:50:28;3.70;;;2.13;;
20533;SDS011;12929;56.822;26.056;2022-07-10T09:52:58;5.28;;;2.35;;
20533;SDS011;12929;56.822;26.056;2022-07-10T09:55:27;8.20;;;2.47;;
20533;SDS011;12929;56.822;26.056;2022-07-10T09:57:57;6.72;;;2.28;;
20533;SDS011;12929;56.822;26.056;2022-07-10T10:00:29;6.85;;;2.28;;
20533;SDS011;12929;56.822;26.056;2022-07-10T10:03:00;6.95;;;2.30;;
20533;SDS011;12929;56.822;26.056;2022-07-10T10:05:37;5.82;;;2.13;;
20533;SDS011;12929;56.822;26.056;2022-07-10T10:08:10;4.45;;;1.70;;
20533;SDS011;12929;56.822;26.056;2022-07-10T10:10:51;6.00;;;1.92;;
20533;SDS011;12929;56.822;26.056;2022-07-10T10:13:21;7.33;;;2.93;;
20533;SDS011;12929;56.822;26.056;2022-07-10T10:15:50;6.00;;;1.80;;
20533;SDS011;12929;56.822;26.056;2022-07-10T10:18:19;4.40;;;1.80;;
20533;SDS011;12929;56.822;26.056;2022-07-10T10:20:49;3.63;;;1.55;;
20533;SDS011;12929;56.822;26.056;2022-07-10T10:23:20;3.80;;;1.40;;
20533;SDS011;12929;56.822;26.056;2022-07-10T10:25:50;4.72;;;1.40;;
20533;SDS011;12929;56.822;26.056;2022-07-10T10:28:21;3.20;;;1.38;;
20533;SDS011;12929;56.822;26.056;2022-07-10T10:31:00;4.88;;;1.40;;
20533;SDS011;12929;56.822;26.056;2022-07-10T10:36:09;3.15;;;1.50;;
20533;SDS011;12929;56.822;26.056;2022-07-10T10:41:23;3.78;;;1.55;;
20533;SDS011;12929;56.822;26.056;2022-07-10T10:47:13;4.95;;;1.63;;
20533;SDS011;12929;56.822;26.056;2022-07-10T10:49:53;4.63;;;1.80;;
20533;SDS011;12929;56.822;26.056;2022-07-10T10:52:24;7.32;;;3.78;;
20533;SDS011;12929;56.822;26.056;2022-07-10T11:00:04;3.38;;;1.48;;
20533;SDS011;12929;56.822;26.056;2022-07-10T11:02:36;3.45;;;1.38;;
20533;SDS011;12929;56.822;26.056;2022-07-10T11:07:52;3.63;;;1.30;;
20533;SDS011;12929;56.822;26.056;2022-07-10T11:10:32;3.13;;;1.40;;
20533;SDS011;12929;56.822;26.056;2022-07-10T11:13:17;3.40;;;1.55;;
20533;SDS011;12929;56.822;26.056;2022-07-10T11:15:46;5.65;;;1.77;;
20533;SDS011;12929;56.822;26.056;2022-07-10T11:18:16;3.22;;;1.50;;
20533;SDS011;12929;56.822;26.056;2022-07-10T11:20:50;3.05;;;1.40;;
20533;SDS011;12929;56.822;26.056;2022-07-10T11:26:09;2.53;;;1.10;;
20533;SDS011;12929;56.822;26.056;2022-07-10T11:31:19;4.38;;;1.17;;
20533;SDS011;12929;56.822;26.056;2022-07-10T11:33:54;3.42;;;1.10;;
20533;SDS011;12929;56.822;26.056;2022-07-10T11:36:24;1.83;;;0.90;;
20533;SDS011;12929;56.822;26.056;2022-07-10T11:39:05;2.40;;;0.90;;
20533;SDS011;12929;56.822;26.056;2022-07-10T11:41:41;1.80;;;1.13;;
20533;SDS011;12929;56.822;26.056;2022-07-10T11:44:16;2.03;;;1.20;;
20533;SDS011;12929;56.822;26.056;2022-07-10T11:46:45;3.53;;;1.20;;
20533;SDS011;12929;56.822;26.056;2022-07-10T11:49:16;2.42;;;1.20;;
20533;SDS011;12929;56.822;26.056;2022-07-10T11:51:44;5.57;;;1.20;;
20533;SDS011;12929;56.822;26.056;2022-07-10T11:54:13;3.15;;;1.10;;
20533;SDS011;12929;56.822;26.056;2022-07-10T11:56:46;2.25;;;1.10;;
20533;SDS011;12929;56.822;26.056;2022-07-10T11:59:25;2.83;;;1.38;;
20533;SDS011;12929;56.822;26.056;2022-07-10T12:01:55;3.33;;;1.40;;
20533;SDS011;12929;56.822;26.056;2022-07-10T12:04:24;3.72;;;1.15;;
20533;SDS011;12929;56.822;26.056;2022-07-10T12:06:53;2.55;;;1.20;;
20533;SDS011;12929;56.822;26.056;2022-07-10T12:09:22;2.47;;;1.20;;
20533;SDS011;12929;56.822;26.056;2022-07-10T12:12:04;4.40;;;1.42;;
20533;SDS011;12929;56.822;26.056;2022-07-10T12:14:33;2.90;;;1.23;;
20533;SDS011;12929;56.822;26.056;2022-07-10T12:17:02;3.15;;;1.10;;
20533;SDS011;12929;56.822;26.056;2022-07-10T12:19:39;3.30;;;1.10;;
20533;SDS011;12929;56.822;26.056;2022-07-10T12:22:07;3.25;;;1.15;;
20533;SDS011;12929;56.822;26.056;2022-07-10T12:24:36;5.03;;;1.42;;
20533;SDS011;12929;56.822;26.056;2022-07-10T12:27:04;3.40;;;1.13;;
20533;SDS011;12929;56.822;26.056;2022-07-10T12:29:34;2.65;;;1.27;;
20533;SDS011;12929;56.822;26.056;2022-07-10T12:32:02;1.65;;;1.10;;
20533;SDS011;12929;56.822;26.056;2022-07-10T12:34:37;3.28;;;1.20;;
20533;SDS011;12929;56.822;26.056;2022-07-10T12:37:14;2.70;;;1.10;;
20533;SDS011;12929;56.822;26.056;2022-07-10T12:39:50;3.33;;;1.10;;
20533;SDS011;12929;56.822;26.056;2022-07-10T12:42:27;3.35;;;1.20;;
20533;SDS011;12929;56.822;26.056;2022-07-10T12:45:09;4.10;;;1.23;;
20533;SDS011;12929;56.822;26.056;2022-07-10T12:47:44;4.00;;;1.23;;
20533;SDS011;12929;56.822;26.056;2022-07-10T12:50:15;3.15;;;1.23;;
20533;SDS011;12929;56.822;26.056;2022-07-10T12:52:47;3.95;;;1.10;;
20533;SDS011;12929;56.822;26.056;2022-07-10T12:55:15;4.55;;;1.20;;
20533;SDS011;12929;56.822;26.056;2022-07-10T13:10:49;2.50;;;1.00;;
20533;SDS011;12929;56.822;26.056;2022-07-10T13:13:23;7.10;;;3.70;;
20533;SDS011;12929;56.822;26.056;2022-07-10T13:15:51;3.75;;;1.55;;
20533;SDS011;12929;56.822;26.056;2022-07-10T13:18:24;4.05;;;1.40;;
20533;SDS011;12929;56.822;26.056;2022-07-10T13:20:59;2.90;;;1.33;;
20533;SDS011;12929;56.822;26.056;2022-07-10T13:23:29;5.10;;;2.50;;
20533;SDS011;12929;56.822;26.056;2022-07-10T13:25:57;7.43;;;2.33;;
20533;SDS011;12929;56.822;26.056;2022-07-10T13:28:29;3.78;;;1.63;;
20533;SDS011;12929;56.822;26.056;2022-07-10T13:30:57;4.82;;;1.50;;
20533;SDS011;12929;56.822;26.056;2022-07-10T13:33:25;5.37;;;1.40;;
20533;SDS011;12929;56.822;26.056;2022-07-10T13:35:54;5.00;;;1.40;;
20533;SDS011;12929;56.822;26.056;2022-07-10T13:38:22;2.85;;;1.40;;
20533;SDS011;12929;56.822;26.056;2022-07-10T13:40:52;3.45;;;1.40;;
20533;SDS011;12929;56.822;26.056;2022-07-10T13:43:20;5.27;;;1.47;;
20533;SDS011;12929;56.822;26.056;2022-07-10T13:45:56;2.60;;;1.10;;
20533;SDS011;12929;56.822;26.056;2022-07-10T13:48:25;4.93;;;1.40;;
20533;SDS011;12929;56.822;26.056;2022-07-10T13:50:53;2.83;;;1.20;;
20533;SDS011;12929;56.822;26.056;2022-07-10T13:53:21;3.73;;;1.37;;
20533;SDS011;12929;56.822;26.056;2022-07-10T13:55:49;4.82;;;1.40;;
20533;SDS011;12929;56.822;26.056;2022-07-10T13:58:17;5.05;;;1.60;;
20533;SDS011;12929;56.822;26.056;2022-07-10T14:00:46;4.45;;;1.60;;
20533;SDS011;12929;56.822;26.056;2022-07-10T14:03:14;3.38;;;1.40;;
20533;SDS011;12929;56.822;26.056;2022-07-10T14:05:42;4.15;;;1.77;;
20533;SDS011;12929;56.822;26.056;2022-07-10T14:08:10;2.58;;;1.30;;
20533;SDS011;12929;56.822;26.056;2022-07-10T14:10:38;2.95;;;1.38;;
20533;SDS011;12929;56.822;26.056;2022-07-10T14:13:06;3.17;;;1.23;;
20533;SDS011;12929;56.822;26.056;2022-07-10T14:15:38;3.67;;;1.30;;
20533;SDS011;12929;56.822;26.056;2022-07-10T14:18:07;4.10;;;1.30;;
20533;SDS011;12929;56.822;26.056;2022-07-10T14:20:35;3.38;;;1.52;;
20533;SDS011;12929;56.822;26.056;2022-07-10T14:23:21;4.23;;;1.50;;
20533;SDS011;12929;56.822;26.056;2022-07-10T14:25:49;3.58;;;1.38;;
20533;SDS011;12929;56.822;26.056;2022-07-10T14:28:18;4.28;;;1.30;;
20533;SDS011;12929;56.822;26.056;2022-07-10T14:30:46;5.72;;;1.50;;
20533;SDS011;12929;56.822;26.056;2022-07-10T14:33:17;5.13;;;1.65;;
20533;SDS011;12929;56.822;26.056;2022-07-10T14:35:48;3.50;;;1.30;;
20533;SDS011;12929;56.822;26.056;2022-07-10T14:38:15;4.43;;;1.60;;
20533;SDS011;12929;56.822;26.056;2022-07-10T14:40:43;3.33;;;1.13;;
20533;SDS011;12929;56.822;26.056;2022-07-10T14:43:11;4.60;;;1.30;;
20533;SDS011;12929;56.822;26.056;2022-07-10T14:45:38;4.20;;;1.50;;
20533;SDS011;12929;56.822;26.056;2022-07-10T14:48:21;3.05;;;1.25;;
20533;SDS011;12929;56.822;26.056;2022-07-10T14:50:48;2.63;;;1.43;;
20533;SDS011;12929;56.822;26.056;2022-07-10T14:53:16;2.67;;;1.40;;
20533;SDS011;12929;56.822;26.056;2022-07-10T14:55:44;4.03;;;1.38;;
20533;SDS011;12929;56.822;26.056;2022-07-10T14:58:11;3.90;;;1.30;;
20533;SDS011;12929;56.822;26.056;2022-07-10T15:00:39;3.90;;;1.50;;
20533;SDS011;12929;56.822;26.056;2022-07-10T15:03:07;3.42;;;1.27;;
20533;SDS011;12929;56.822;26.056;2022-07-10T15:05:35;4.07;;;1.40;;
20533;SDS011;12929;56.822;26.056;2022-07-10T15:08:03;5.22;;;1.40;;
20533;SDS011;12929;56.822;26.056;2022-07-10T15:10:31;5.68;;;1.50;;
20533;SDS011;12929;56.822;26.056;2022-07-10T15:13:00;6.60;;;1.60;;
20533;SDS011;12929;56.822;26.056;2022-07-10T15:15:32;3.38;;;1.25;;
20533;SDS011;12929;56.822;26.056;2022-07-10T15:18:00;7.25;;;1.60;;
20533;SDS011;12929;56.822;26.056;2022-07-10T15:20:28;7.03;;;1.88;;
20533;SDS011;12929;56.822;26.056;2022-07-10T15:22:56;4.50;;;1.50;;
20533;SDS011;12929;56.822;26.056;2022-07-10T15:25:24;4.63;;;1.52;;
20533;SDS011;12929;56.822;26.056;2022-07-10T15:27:52;6.87;;;1.67;;
20533;SDS011;12929;56.822;26.056;2022-07-10T15:30:20;4.43;;;1.60;;
20533;SDS011;12929;56.822;26.056;2022-07-10T15:32:48;5.75;;;1.45;;
20533;SDS011;12929;56.822;26.056;2022-07-10T15:35:16;3.30;;;1.35;;